フェロー諸島 の空港の天気 - METARとTAF

ヴァガール空港 ( EKVG / FAE ) - フェロー諸島 フェロー諸島
飛行場実況気象(Metar)
観測時間01/21 19:50 WET (01/21 19:50 UTC)
風向・風速西南西 5m/s 瞬間風速12m/s
視程3000m
天気現象霧雨 もや
全天を覆う雲 雲底高度 30m
気温8℃
湿度100%
気圧1018hPa
METAREKVG 211950Z AUTO 25009G24KT 170V290 3000 DZ BR OVC001/// 08/08 Q1018 RMK OVC005/// WIND SKEID 27016G31KT 190V330
過去の天気等 Google飛行場航空写真 Wunderground天気予報

過去48時間のMETAR

飛行場予報(TAF)
発表時間: 1/21 14:22 WET (1/21 14:22 UTC)
予報対象時間: 21日15時 WET ~ 21日21時 WET
風向・風速西南西 9m/s
視程10km以上
全天を覆う雲 雲底高度 180m
21日15時 WET ~ 21日21時 WET に一時的に
風向・風速西南西 10m/s 瞬間風速 15m/s
視程2000m
天気現象弱い霧雨 もや
全天を覆う雲 雲底高度 30m
TAF EKVG 211422Z 2115/2121 24018KT 9999 OVC006
TEMPO 2115/2121 24020G30KT 2000 -DZ BR OVC001